Time;durP1;ratioP1;P1;durP2;ratioP2;P2;SDS_P1;SDS_P2;PMS_P1;PMS_P2;Temp;Humidity;BMP_temperature;BMP_pressure;BME280_temperature;BME280_humidity;BME280_pressure;Samples;Min_cycle;Max_cycle;Signal;HPM_P1;HPM_P2
2021/03/15 00:01:37;;;;;;;2.70;2.23;;;;;;;;;;4961287;29;20403;-77
2021/03/15 00:07:07;;;;;;;2.65;2.45;;;;;;;;;;4960184;28;20470;-79
2021/03/15 00:09:33;;;;;;;2.58;2.38;;;;;;;;;;4960247;29;20164;-78
2021/03/15 00:11:59;;;;;;;7.23;2.70;;;;;;;;;;4959651;29;20250;-77
2021/03/15 00:14:25;;;;;;;3.67;2.22;;;;;;;;;;4959839;28;20479;-80
2021/03/15 00:22:39;;;;;;;4.13;3.17;;;;;;;;;;4957223;29;20196;-76
2021/03/15 00:25:05;;;;;;;4.85;3.38;;;;;;;;;;4956847;29;20168;-76
2021/03/15 00:27:32;;;;;;;3.45;2.33;;;;;;;;;;4956055;29;20176;-79
2021/03/15 00:29:57;;;;;;;4.07;3.67;;;;;;;;;;4956927;29;20515;-76
2021/03/15 00:32:24;;;;;;;4.20;3.37;;;;;;;;;;4956252;29;20172;-76
2021/03/15 00:34:50;;;;;;;3.83;3.53;;;;;;;;;;4939430;29;21142;-76
2021/03/15 00:37:15;;;;;;;3.17;2.77;;;;;;;;;;4956623;29;20255;-78
2021/03/15 00:39:42;;;;;;;3.47;2.97;;;;;;;;;;4939546;29;20439;-78
2021/03/15 00:42:08;;;;;;;4.22;3.65;;;;;;;;;;4956551;29;20424;-78
2021/03/15 00:44:35;;;;;;;6.53;3.28;;;;;;;;;;4956664;29;20184;-81
2021/03/15 00:47:01;;;;;;;5.15;3.05;;;;;;;;;;4956685;29;20641;-78
2021/03/15 00:52:30;;;;;;;3.25;2.95;;;;;;;;;;4956508;29;20270;-79
2021/03/15 00:54:56;;;;;;;4.10;3.50;;;;;;;;;;4956248;29;20244;-79
2021/03/15 00:57:22;;;;;;;4.17;3.30;;;;;;;;;;4956197;29;20908;-76
2021/03/15 00:59:48;;;;;;;4.47;4.03;;;;;;;;;;4956546;29;20427;-78
2021/03/15 01:02:14;;;;;;;5.88;3.28;;;;;;;;;;4956365;29;20415;-79
2021/03/15 01:07:44;;;;;;;3.83;3.03;;;;;;;;;;4956196;29;20485;-78
2021/03/15 01:10:11;;;;;;;4.38;3.22;;;;;;;;;;4939104;29;20176;-80
2021/03/15 01:12:37;;;;;;;4.40;3.55;;;;;;;;;;4956298;29;20275;-79
2021/03/15 01:15:05;;;;;;;4.13;3.50;;;;;;;;;;4942807;29;20243;-74
2021/03/15 01:17:31;;;;;;;3.38;3.10;;;;;;;;;;4958957;29;20184;-77
2021/03/15 01:19:57;;;;;;;4.60;3.80;;;;;;;;;;4956551;29;20567;-78
2021/03/15 01:22:23;;;;;;;4.13;3.80;;;;;;;;;;4938905;29;20431;-76
2021/03/15 01:24:49;;;;;;;5.10;3.67;;;;;;;;;;4956026;29;20906;-79
2021/03/15 01:27:15;;;;;;;3.27;3.07;;;;;;;;;;4955797;29;20168;-80
2021/03/15 01:29:41;;;;;;;3.10;2.80;;;;;;;;;;4955875;29;20479;-79
2021/03/15 01:32:07;;;;;;;5.30;3.13;;;;;;;;;;4955525;28;20775;-80
2021/03/15 01:37:37;;;;;;;6.00;2.58;;;;;;;;;;4955903;29;20202;-79
2021/03/15 01:40:03;;;;;;;4.33;3.33;;;;;;;;;;4955575;29;20200;-77
2021/03/15 01:42:29;;;;;;;4.00;2.70;;;;;;;;;;4955494;29;20419;-77
2021/03/15 01:44:55;;;;;;;4.30;2.93;;;;;;;;;;4955534;29;20183;-79
2021/03/15 01:47:23;;;;;;;3.27;3.03;;;;;;;;;;4955354;29;20426;-76
2021/03/15 01:52:53;;;;;;;7.45;3.67;;;;;;;;;;4955573;29;20174;-80
2021/03/15 01:55:20;;;;;;;6.47;3.15;;;;;;;;;;4937767;29;20693;-78
2021/03/15 01:57:46;;;;;;;6.07;3.15;;;;;;;;;;4955437;29;20210;-77
2021/03/15 02:00:13;;;;;;;3.50;3.20;;;;;;;;;;4955354;29;20172;-78
2021/03/15 02:02:45;;;;;;;4.53;2.50;;;;;;;;;;4955133;29;20183;-76
2021/03/15 02:05:11;;;;;;;3.25;2.78;;;;;;;;;;4955326;29;20774;-79
2021/03/15 02:07:37;;;;;;;5.88;3.25;;;;;;;;;;4954949;29;20179;-77
2021/03/15 02:10:05;;;;;;;3.92;3.53;;;;;;;;;;4955162;29;20164;-79
2021/03/15 02:12:49;;;;;;;4.88;3.20;;;;;;;;;;4954845;29;20164;-82
2021/03/15 02:15:29;;;;;;;5.75;3.30;;;;;;;;;;4954890;29;20239;-79
2021/03/15 02:18:13;;;;;;;4.82;3.08;;;;;;;;;;4954776;29;20168;-77
2021/03/15 02:20:51;;;;;;;5.15;2.80;;;;;;;;;;4955028;29;20175;-79
2021/03/15 02:23:31;;;;;;;5.20;3.33;;;;;;;;;;4954988;29;20168;-80
2021/03/15 02:26:13;;;;;;;4.63;3.20;;;;;;;;;;4954984;29;20171;-78
2021/03/15 02:28:58;;;;;;;5.47;3.97;;;;;;;;;;4937548;29;20179;-79
2021/03/15 02:31:42;;;;;;;4.07;3.10;;;;;;;;;;4954837;29;20178;-78
2021/03/15 02:34:27;;;;;;;4.20;3.17;;;;;;;;;;4955077;29;20215;-78
2021/03/15 02:36:54;;;;;;;3.58;3.25;;;;;;;;;;4954805;29;20168;-79
2021/03/15 02:39:23;;;;;;;4.68;3.67;;;;;;;;;;4954733;29;20626;-77
2021/03/15 02:41:50;;;;;;;5.03;3.08;;;;;;;;;;4954665;29;20612;-78
2021/03/15 02:44:17;;;;;;;2.95;2.75;;;;;;;;;;4954219;29;20176;-79
2021/03/15 02:46:45;;;;;;;4.25;3.08;;;;;;;;;;4954837;29;20509;-77
2021/03/15 02:49:12;;;;;;;5.20;3.30;;;;;;;;;;4954643;29;20200;-78
2021/03/15 02:51:39;;;;;;;6.82;3.10;;;;;;;;;;4954633;29;20258;-77
2021/03/15 02:54:08;;;;;;;4.80;4.18;;;;;;;;;;4954428;29;20619;-78
2021/03/15 02:56:35;;;;;;;4.28;3.33;;;;;;;;;;4960489;29;20199;-77
2021/03/15 02:59:06;;;;;;;4.35;2.75;;;;;;;;;;4958366;29;20188;-78
2021/03/15 03:01:32;;;;;;;7.93;3.47;;;;;;;;;;4955201;29;20194;-80
2021/03/15 03:03:59;;;;;;;3.85;3.47;;;;;;;;;;4954698;29;20566;-78
2021/03/15 03:06:27;;;;;;;2.83;2.63;;;;;;;;;;4955000;29;20498;-78
2021/03/15 03:08:53;;;;;;;8.23;3.55;;;;;;;;;;4954926;29;20172;-78
2021/03/15 03:11:20;;;;;;;4.75;2.78;;;;;;;;;;4954401;29;20315;-78
2021/03/15 03:13:47;;;;;;;6.43;3.10;;;;;;;;;;4937010;29;20587;-80
2021/03/15 03:16:13;;;;;;;4.80;3.70;;;;;;;;;;4954705;29;20531;-76
2021/03/15 03:18:40;;;;;;;6.00;3.35;;;;;;;;;;4953893;29;20682;-79
2021/03/15 03:21:07;;;;;;;5.43;3.30;;;;;;;;;;4954368;29;20194;-81
2021/03/15 03:23:35;;;;;;;3.47;3.15;;;;;;;;;;4954326;29;20171;-80
2021/03/15 03:26:02;;;;;;;4.43;3.10;;;;;;;;;;4954560;29;20516;-77
2021/03/15 03:28:28;;;;;;;4.35;2.80;;;;;;;;;;4954554;29;20180;-80
2021/03/15 03:30:56;;;;;;;2.28;2.08;;;;;;;;;;4954514;29;20156;-79
2021/03/15 03:33:22;;;;;;;4.20;2.83;;;;;;;;;;4953969;29;20175;-79
2021/03/15 03:35:48;;;;;;;6.37;2.40;;;;;;;;;;4954218;29;20523;-77
2021/03/15 03:38:14;;;;;;;3.10;2.58;;;;;;;;;;4954106;29;20426;-79
2021/03/15 03:40:40;;;;;;;3.33;2.38;;;;;;;;;;4953789;29;20200;-78
2021/03/15 03:43:06;;;;;;;3.13;2.70;;;;;;;;;;4937081;29;20494;-78
2021/03/15 03:45:32;;;;;;;2.50;2.30;;;;;;;;;;4954086;29;20183;-79
2021/03/15 03:47:58;;;;;;;2.70;2.30;;;;;;;;;;4954008;29;20451;-77
2021/03/15 03:53:54;;;;;;;2.63;2.40;;;;;;;;;;4954122;28;20638;-78
2021/03/15 03:56:24;;;;;;;4.75;2.78;;;;;;;;;;4954948;29;20195;-77
2021/03/15 03:58:53;;;;;;;3.85;2.70;;;;;;;;;;4957699;29;20563;-78
2021/03/15 04:01:22;;;;;;;5.45;2.72;;;;;;;;;;4957424;29;20587;-76
2021/03/15 04:03:52;;;;;;;2.72;2.53;;;;;;;;;;4957379;29;20168;-79
2021/03/15 04:06:19;;;;;;;3.70;2.65;;;;;;;;;;4957718;29;20535;-79
2021/03/15 04:08:55;;;;;;;8.15;2.53;;;;;;;;;;4957813;29;20176;-78
2021/03/15 04:11:23;;;;;;;2.80;2.50;;;;;;;;;;4957467;29;20260;-80
2021/03/15 04:13:50;;;;;;;2.63;2.42;;;;;;;;;;4957193;29;20241;-79
2021/03/15 04:16:16;;;;;;;3.65;1.75;;;;;;;;;;4957470;29;20705;-78
2021/03/15 04:18:50;;;;;;;2.75;2.30;;;;;;;;;;4957545;29;20206;-80
2021/03/15 04:21:23;;;;;;;5.85;2.35;;;;;;;;;;4957199;29;20187;-79
2021/03/15 04:23:49;;;;;;;3.83;2.63;;;;;;;;;;4957221;29;20168;-78
2021/03/15 04:26:15;;;;;;;4.90;2.50;;;;;;;;;;4957091;29;20172;-76
2021/03/15 04:28:43;;;;;;;3.33;2.67;;;;;;;;;;4957041;29;20207;-79
2021/03/15 04:31:09;;;;;;;6.45;2.92;;;;;;;;;;4957037;29;20179;-79
2021/03/15 04:33:39;;;;;;;3.38;2.50;;;;;;;;;;4956986;29;20238;-78
2021/03/15 04:36:07;;;;;;;6.45;1.80;;;;;;;;;;4957117;29;20175;-79
2021/03/15 04:38:33;;;;;;;3.05;2.13;;;;;;;;;;4946095;29;20648;-76
2021/03/15 04:40:59;;;;;;;3.90;2.53;;;;;;;;;;4957681;29;20280;-78
2021/03/15 04:43:25;;;;;;;3.27;2.40;;;;;;;;;;4956604;29;20207;-80
2021/03/15 04:45:51;;;;;;;2.67;2.45;;;;;;;;;;4957090;29;20424;-77
2021/03/15 04:48:21;;;;;;;2.60;2.20;;;;;;;;;;4956777;29;20179;-80
2021/03/15 04:53:51;;;;;;;3.60;2.40;;;;;;;;;;4956813;29;20354;-79
2021/03/15 04:56:18;;;;;;;3.95;2.30;;;;;;;;;;4956740;29;20176;-78
2021/03/15 04:58:46;;;;;;;2.60;2.40;;;;;;;;;;4956704;29;20203;-78
2021/03/15 05:01:12;;;;;;;4.30;3.25;;;;;;;;;;4956897;29;20251;-78
2021/03/15 05:09:27;;;;;;;2.35;2.15;;;;;;;;;;4957040;29;20200;-79
2021/03/15 05:11:54;;;;;;;3.75;2.80;;;;;;;;;;4956789;29;20168;-77
2021/03/15 05:14:21;;;;;;;7.32;2.42;;;;;;;;;;4956447;29;20242;-76
2021/03/15 05:16:47;;;;;;;2.50;2.20;;;;;;;;;;4939459;29;20275;-81
2021/03/15 05:19:14;;;;;;;5.38;2.42;;;;;;;;;;4956255;29;20164;-79
2021/03/15 05:21:41;;;;;;;4.10;2.05;;;;;;;;;;4956503;29;20507;-76
2021/03/15 05:24:09;;;;;;;3.60;2.85;;;;;;;;;;4955836;29;20207;-80
2021/03/15 05:26:37;;;;;;;6.32;2.28;;;;;;;;;;4956281;29;20175;-78
2021/03/15 05:29:05;;;;;;;2.85;2.08;;;;;;;;;;4955976;29;20175;-77
2021/03/15 05:31:31;;;;;;;3.15;1.98;;;;;;;;;;4955856;29;20188;-77
2021/03/15 05:33:58;;;;;;;2.00;1.90;;;;;;;;;;4955952;29;20212;-78
2021/03/15 05:36:24;;;;;;;5.20;1.95;;;;;;;;;;4956037;29;20203;-78
2021/03/15 05:38:50;;;;;;;4.50;1.55;;;;;;;;;;4955906;29;20279;-79
2021/03/15 05:41:17;;;;;;;3.78;2.30;;;;;;;;;;4955936;29;20179;-79
2021/03/15 05:43:49;;;;;;;2.55;1.95;;;;;;;;;;4955686;29;20255;-80
2021/03/15 05:46:34;;;;;;;3.85;2.22;;;;;;;;;;4955392;29;20573;-77
2021/03/15 05:49:07;;;;;;;2.35;2.10;;;;;;;;;;4955771;29;20171;-78
2021/03/15 05:51:51;;;;;;;2.47;1.92;;;;;;;;;;4955950;29;20255;-79
2021/03/15 05:54:17;;;;;;;7.57;2.25;;;;;;;;;;4955542;29;20207;-76
2021/03/15 05:56:49;;;;;;;8.03;2.73;;;;;;;;;;4955858;29;20179;-79
2021/03/15 05:59:18;;;;;;;4.93;2.95;;;;;;;;;;4955726;29;20416;-74
2021/03/15 06:01:52;;;;;;;4.47;2.15;;;;;;;;;;4955598;29;20180;-75
2021/03/15 06:04:18;;;;;;;6.68;2.70;;;;;;;;;;4955711;29;20267;-76
2021/03/15 06:06:47;;;;;;;3.43;2.10;;;;;;;;;;4955752;29;20176;-73
2021/03/15 06:09:13;;;;;;;1.92;1.73;;;;;;;;;;4955622;29;20416;-80
2021/03/15 06:11:44;;;;;;;4.00;2.40;;;;;;;;;;4955317;29;20191;-75
2021/03/15 06:14:13;;;;;;;2.45;2.22;;;;;;;;;;4937926;29;20702;-77
2021/03/15 06:16:40;;;;;;;4.10;2.60;;;;;;;;;;4955036;28;20568;-80
2021/03/15 06:19:06;;;;;;;2.40;2.20;;;;;;;;;;4956163;29;20172;-78
2021/03/15 06:24:37;;;;;;;6.10;2.50;;;;;;;;;;4955346;29;20199;-78
2021/03/15 06:27:04;;;;;;;5.80;2.00;;;;;;;;;;4954926;29;20175;-79
2021/03/15 06:29:31;;;;;;;4.97;2.22;;;;;;;;;;4955080;29;20172;-80
2021/03/15 06:31:58;;;;;;;5.93;2.90;;;;;;;;;;4955376;29;20176;-80
2021/03/15 06:34:25;;;;;;;2.05;1.80;;;;;;;;;;4955163;29;20203;-82
2021/03/15 06:36:52;;;;;;;3.97;2.22;;;;;;;;;;4955342;29;20178;-80
2021/03/15 06:39:19;;;;;;;3.70;2.00;;;;;;;;;;4937928;29;20631;-82
2021/03/15 06:41:46;;;;;;;4.13;1.85;;;;;;;;;;4954882;29;20175;-82
2021/03/15 06:44:12;;;;;;;6.28;2.08;;;;;;;;;;4955051;29;20690;-80
2021/03/15 06:46:40;;;;;;;2.13;1.90;;;;;;;;;;4937579;29;20176;-78
2021/03/15 06:49:06;;;;;;;2.58;2.25;;;;;;;;;;4954654;29;20506;-80
2021/03/15 06:54:36;;;;;;;1.77;1.42;;;;;;;;;;4954292;29;20496;-78
2021/03/15 06:57:14;;;;;;;2.75;1.60;;;;;;;;;;4954116;29;20236;-79
2021/03/15 06:59:51;;;;;;;2.40;1.83;;;;;;;;;;4954298;29;20606;-78
2021/03/15 07:02:24;;;;;;;2.75;1.90;;;;;;;;;;4954090;29;20178;-79
2021/03/15 07:04:51;;;;;;;1.83;1.73;;;;;;;;;;4954263;29;20180;-81
2021/03/15 07:07:27;;;;;;;2.15;1.88;;;;;;;;;;4954253;29;20655;-75
2021/03/15 07:09:55;;;;;;;1.35;1.25;;;;;;;;;;4954284;29;20267;-80
2021/03/15 07:12:22;;;;;;;3.88;1.67;;;;;;;;;;4954324;29;20184;-77
2021/03/15 07:14:48;;;;;;;2.17;1.50;;;;;;;;;;4954062;29;20698;-75
2021/03/15 07:17:25;;;;;;;1.98;1.45;;;;;;;;;;4954105;29;20223;-77
2021/03/15 07:19:51;;;;;;;5.70;1.70;;;;;;;;;;4954346;29;20531;-78
2021/03/15 07:22:18;;;;;;;1.42;1.33;;;;;;;;;;4954289;29;20267;-78
2021/03/15 07:24:44;;;;;;;1.80;1.60;;;;;;;;;;4954655;29;20235;-77
2021/03/15 07:27:10;;;;;;;2.70;1.60;;;;;;;;;;4954822;29;20176;-78
2021/03/15 07:29:36;;;;;;;1.55;1.30;;;;;;;;;;4956066;28;20772;-78
2021/03/15 07:32:02;;;;;;;1.57;1.47;;;;;;;;;;4957798;29;20175;-74
2021/03/15 07:34:28;;;;;;;1.90;1.70;;;;;;;;;;4957887;29;20472;-78
2021/03/15 07:39:57;;;;;;;1.90;1.02;;;;;;;;;;4957877;29;20782;-78
2021/03/15 07:42:23;;;;;;;1.35;1.25;;;;;;;;;;4957660;29;20211;-78
2021/03/15 07:44:49;;;;;;;6.00;1.30;;;;;;;;;;4957698;29;20180;-77
2021/03/15 07:47:26;;;;;;;1.40;1.30;;;;;;;;;;4957540;29;20420;-74
2021/03/15 07:49:57;;;;;;;1.70;1.27;;;;;;;;;;4957507;29;20455;-77
2021/03/15 07:52:39;;;;;;;2.35;1.20;;;;;;;;;;4957533;29;20172;-75
2021/03/15 07:55:05;;;;;;;1.70;1.60;;;;;;;;;;4957384;29;20210;-74
2021/03/15 07:57:32;;;;;;;1.25;1.15;;;;;;;;;;4957376;29;20172;-76
2021/03/15 07:59:58;;;;;;;5.47;4.65;;;;;;;;;;4957846;29;20179;-74
2021/03/15 08:02:26;;;;;;;2.05;1.85;;;;;;;;;;4960642;29;20255;-78
2021/03/15 08:04:52;;;;;;;3.65;1.90;;;;;;;;;;4957921;29;20620;-76
2021/03/15 08:07:21;;;;;;;1.63;1.33;;;;;;;;;;4957375;29;20168;-77
2021/03/15 08:09:48;;;;;;;1.70;1.60;;;;;;;;;;4957154;29;20180;-77
2021/03/15 08:12:15;;;;;;;1.77;1.52;;;;;;;;;;4955499;29;20265;-74
2021/03/15 08:14:46;;;;;;;1.73;1.45;;;;;;;;;;4955828;29;20238;-73
2021/03/15 08:17:16;;;;;;;1.80;1.70;;;;;;;;;;4955866;29;20254;-77
2021/03/15 08:19:44;;;;;;;1.55;1.45;;;;;;;;;;4956394;29;20175;-80
2021/03/15 08:25:14;;;;;;;1.77;1.55;;;;;;;;;;4956345;29;20179;-73
2021/03/15 08:27:40;;;;;;;1.55;1.45;;;;;;;;;;4955192;29;20243;-79
2021/03/15 08:30:09;;;;;;;2.00;1.70;;;;;;;;;;4954480;29;20168;-77
2021/03/15 08:32:36;;;;;;;1.10;1.00;;;;;;;;;;4954900;29;20172;-74
2021/03/15 08:35:03;;;;;;;7.32;2.25;;;;;;;;;;4954427;29;20216;-74
2021/03/15 08:37:49;;;;;;;1.48;1.20;;;;;;;;;;4937994;29;20591;-73
2021/03/15 08:40:15;;;;;;;2.47;1.25;;;;;;;;;;4954177;28;20189;-73
2021/03/15 08:42:41;;;;;;;2.47;1.60;;;;;;;;;;4954717;29;20240;-78
2021/03/15 08:45:26;;;;;;;1.60;1.00;;;;;;;;;;4955345;29;20427;-74
2021/03/15 08:47:52;;;;;;;2.42;1.42;;;;;;;;;;4954935;29;20422;-75
2021/03/15 08:50:30;;;;;;;2.00;1.60;;;;;;;;;;4954583;29;20238;-78
2021/03/15 08:52:57;;;;;;;1.67;1.40;;;;;;;;;;4954868;29;20181;-77
2021/03/15 08:55:49;;;;;;;1.23;0.93;;;;;;;;;;4955647;29;20213;-75
2021/03/15 08:58:33;;;;;;;0.95;0.90;;;;;;;;;;4951734;29;20198;-73
2021/03/15 09:01:00;;;;;;;1.42;1.08;;;;;;;;;;4954516;29;20259;-75
2021/03/15 09:03:44;;;;;;;1.00;0.75;;;;;;;;;;4954497;29;20275;-74
2021/03/15 09:06:10;;;;;;;1.52;1.30;;;;;;;;;;4954258;29;20173;-74
2021/03/15 09:08:59;;;;;;;0.98;0.95;;;;;;;;;;4954955;29;20225;-74
2021/03/15 09:11:37;;;;;;;0.52;0.50;;;;;;;;;;4949878;29;20228;-74
2021/03/15 09:14:27;;;;;;;0.90;0.90;;;;;;;;;;4954597;29;20232;-73
2021/03/15 09:17:23;;;;;;;1.95;0.80;;;;;;;;;;4954796;29;20177;-74
2021/03/15 09:19:50;;;;;;;1.05;0.82;;;;;;;;;;4936251;29;20250;-74
2021/03/15 09:22:16;;;;;;;1.63;1.45;;;;;;;;;;4954900;29;20176;-75
2021/03/15 09:24:43;;;;;;;0.90;0.60;;;;;;;;;;4955219;29;20176;-74
2021/03/15 09:27:10;;;;;;;0.75;0.75;;;;;;;;;;4954958;29;20429;-73
2021/03/15 09:29:37;;;;;;;0.60;0.40;;;;;;;;;;4937711;29;20177;-75
2021/03/15 09:32:07;;;;;;;0.95;0.68;;;;;;;;;;4955031;29;20209;-74
2021/03/15 09:34:33;;;;;;;0.60;0.60;;;;;;;;;;4954589;29;20245;-74
2021/03/15 09:37:00;;;;;;;0.80;0.77;;;;;;;;;;4954580;29;20183;-73
2021/03/15 09:39:28;;;;;;;0.63;0.50;;;;;;;;;;4952200;29;20168;-75
2021/03/15 09:41:54;;;;;;;0.40;0.40;;;;;;;;;;4953465;29;20622;-74
2021/03/15 09:44:40;;;;;;;1.27;0.75;;;;;;;;;;4953656;29;20210;-74
2021/03/15 09:47:07;;;;;;;0.60;0.60;;;;;;;;;;4953286;29;20228;-75
2021/03/15 09:49:34;;;;;;;1.20;1.08;;;;;;;;;;4953350;29;20666;-75
2021/03/15 09:52:12;;;;;;;1.50;1.25;;;;;;;;;;4952963;28;20706;-74
2021/03/15 09:54:42;;;;;;;1.45;1.05;;;;;;;;;;4953188;29;20294;-75
2021/03/15 09:57:08;;;;;;;1.02;0.93;;;;;;;;;;4953544;29;20178;-72
2021/03/15 09:59:34;;;;;;;5.82;1.98;;;;;;;;;;4953419;29;20280;-73
2021/03/15 10:02:00;;;;;;;2.90;1.43;;;;;;;;;;4953387;29;20255;-74
2021/03/15 10:04:39;;;;;;;1.42;1.00;;;;;;;;;;4953743;29;20434;-74
2021/03/15 10:07:11;;;;;;;1.50;1.25;;;;;;;;;;4953332;29;20573;-75
2021/03/15 10:09:39;;;;;;;1.10;1.00;;;;;;;;;;4953295;29;20701;-76
2021/03/15 10:12:06;;;;;;;1.55;1.08;;;;;;;;;;4953316;29;20565;-76
2021/03/15 10:14:32;;;;;;;1.55;1.45;;;;;;;;;;4953212;29;20264;-75
2021/03/15 10:17:00;;;;;;;0.90;0.80;;;;;;;;;;4951438;29;20257;-74
2021/03/15 10:19:29;;;;;;;1.48;1.30;;;;;;;;;;4953063;29;20175;-73
2021/03/15 10:22:11;;;;;;;0.90;0.90;;;;;;;;;;4953072;29;20170;-74
2021/03/15 10:24:38;;;;;;;1.70;1.60;;;;;;;;;;4953250;29;20173;-75
2021/03/15 10:27:04;;;;;;;2.97;1.30;;;;;;;;;;4953405;29;20582;-73
2021/03/15 10:29:32;;;;;;;1.45;1.05;;;;;;;;;;4953148;29;20198;-73
2021/03/15 10:32:06;;;;;;;1.50;1.40;;;;;;;;;;4952873;29;20223;-75
2021/03/15 10:34:32;;;;;;;1.90;1.70;;;;;;;;;;4952868;29;20532;-74
2021/03/15 10:36:58;;;;;;;2.00;1.63;;;;;;;;;;4952853;29;20621;-76
2021/03/15 10:39:25;;;;;;;2.15;1.67;;;;;;;;;;4952802;29;20567;-74
2021/03/15 10:41:52;;;;;;;1.05;0.95;;;;;;;;;;4952791;29;20207;-73
2021/03/15 10:44:19;;;;;;;6.60;3.67;;;;;;;;;;4952562;29;20171;-77
2021/03/15 10:46:50;;;;;;;1.30;1.20;;;;;;;;;;4952637;29;20656;-79
2021/03/15 10:49:26;;;;;;;1.52;1.30;;;;;;;;;;4952948;29;20185;-80
2021/03/15 10:51:53;;;;;;;1.60;1.50;;;;;;;;;;4952520;29;20173;-79
2021/03/15 10:54:36;;;;;;;1.40;1.27;;;;;;;;;;4952654;29;20254;-78
2021/03/15 10:57:12;;;;;;;1.38;1.27;;;;;;;;;;4952506;29;20228;-76
2021/03/15 10:59:38;;;;;;;1.10;0.98;;;;;;;;;;4952650;29;20209;-75
2021/03/15 11:02:04;;;;;;;0.95;0.85;;;;;;;;;;4952075;29;20724;-79
2021/03/15 11:04:32;;;;;;;1.40;1.25;;;;;;;;;;4952026;28;20207;-78
2021/03/15 11:07:00;;;;;;;1.55;1.42;;;;;;;;;;4952303;29;20505;-76
2021/03/15 11:09:26;;;;;;;1.55;1.05;;;;;;;;;;4952477;29;20488;-76
2021/03/15 11:11:55;;;;;;;1.10;1.00;;;;;;;;;;4952192;29;20182;-74
2021/03/15 11:14:21;;;;;;;1.08;1.00;;;;;;;;;;4951981;29;20896;-73
2021/03/15 11:16:59;;;;;;;1.00;0.90;;;;;;;;;;4951905;29;20177;-79
2021/03/15 11:19:28;;;;;;;1.75;1.30;;;;;;;;;;4934876;29;20260;-78
2021/03/15 11:21:54;;;;;;;1.80;1.20;;;;;;;;;;4951977;29;20174;-77
2021/03/15 11:24:27;;;;;;;1.20;1.05;;;;;;;;;;4952094;29;20183;-76
2021/03/15 11:26:54;;;;;;;1.23;1.13;;;;;;;;;;4951919;29;20222;-76
2021/03/15 11:29:39;;;;;;;1.55;1.00;;;;;;;;;;4952059;29;20207;-78
2021/03/15 11:32:12;;;;;;;0.90;0.90;;;;;;;;;;4954601;29;20167;-76
2021/03/15 11:34:47;;;;;;;1.23;1.13;;;;;;;;;;4952120;29;21029;-77
2021/03/15 11:37:13;;;;;;;4.22;1.20;;;;;;;;;;4952313;29;20271;-81
2021/03/15 11:39:40;;;;;;;1.25;1.15;;;;;;;;;;4952161;29;20262;-75
2021/03/15 11:42:21;;;;;;;1.00;1.00;;;;;;;;;;4951690;29;20180;-76
2021/03/15 11:44:47;;;;;;;1.40;1.30;;;;;;;;;;4952868;29;20263;-78
2021/03/15 11:47:13;;;;;;;2.40;1.50;;;;;;;;;;4952613;29;20458;-73
2021/03/15 11:49:39;;;;;;;1.07;1.00;;;;;;;;;;4953105;29;20960;-76
2021/03/15 11:52:05;;;;;;;2.40;1.60;;;;;;;;;;4953103;29;20419;-77
2021/03/15 11:54:31;;;;;;;1.13;1.03;;;;;;;;;;4952832;29;20474;-77
2021/03/15 11:56:57;;;;;;;1.57;1.47;;;;;;;;;;4953165;29;20450;-79
2021/03/15 11:59:23;;;;;;;1.40;1.30;;;;;;;;;;4953173;29;20418;-76
2021/03/15 12:01:49;;;;;;;2.47;1.27;;;;;;;;;;4953203;29;20860;-77
2021/03/15 12:04:15;;;;;;;1.07;0.97;;;;;;;;;;4952440;29;20419;-77
2021/03/15 12:06:41;;;;;;;1.50;1.40;;;;;;;;;;4935680;29;20463;-80
2021/03/15 12:09:08;;;;;;;1.53;1.43;;;;;;;;;;4952771;29;20780;-74
2021/03/15 12:11:34;;;;;;;1.63;1.53;;;;;;;;;;4952738;29;20946;-78
2021/03/15 12:13:59;;;;;;;1.20;1.10;;;;;;;;;;4952469;29;20482;-79
2021/03/15 12:16:25;;;;;;;1.40;1.30;;;;;;;;;;4954296;28;20482;-76
2021/03/15 12:18:54;;;;;;;1.13;1.07;;;;;;;;;;4956142;29;20511;-79
2021/03/15 12:21:20;;;;;;;1.40;1.30;;;;;;;;;;4956023;29;20419;-75
2021/03/15 12:26:50;;;;;;;1.50;1.40;;;;;;;;;;4955975;29;20472;-78
2021/03/15 12:29:16;;;;;;;1.73;1.30;;;;;;;;;;4955741;29;20415;-76
2021/03/15 12:31:42;;;;;;;1.30;1.20;;;;;;;;;;4955569;29;20400;-78
2021/03/15 12:34:08;;;;;;;1.30;1.30;;;;;;;;;;4955461;29;20486;-78
2021/03/15 12:36:34;;;;;;;2.47;2.27;;;;;;;;;;4938938;29;20422;-78
2021/03/15 12:39:00;;;;;;;1.90;1.80;;;;;;;;;;4956006;29;20479;-79
2021/03/15 12:41:26;;;;;;;1.43;1.33;;;;;;;;;;4956153;29;20425;-77
2021/03/15 12:43:52;;;;;;;1.33;1.23;;;;;;;;;;4956008;29;20409;-79
2021/03/15 12:46:18;;;;;;;1.63;1.53;;;;;;;;;;4956023;29;20517;-79
2021/03/15 12:48:47;;;;;;;1.57;1.47;;;;;;;;;;4955561;29;20414;-79
2021/03/15 12:51:13;;;;;;;1.13;1.10;;;;;;;;;;4956100;29;20431;-77
2021/03/15 12:56:43;;;;;;;1.53;1.43;;;;;;;;;;4956180;29;20430;-79
2021/03/15 12:59:09;;;;;;;1.80;1.57;;;;;;;;;;4955795;29;20433;-76
2021/03/15 13:01:35;;;;;;;1.20;1.10;;;;;;;;;;4956531;29;20422;-78
2021/03/15 13:04:01;;;;;;;1.17;0.90;;;;;;;;;;4956342;29;20415;-76
2021/03/15 13:06:27;;;;;;;1.97;1.47;;;;;;;;;;4956121;29;20489;-80
2021/03/15 13:11:57;;;;;;;1.00;1.00;;;;;;;;;;4955960;29;20766;-80
2021/03/15 13:14:24;;;;;;;1.40;1.30;;;;;;;;;;4955654;29;20605;-80
2021/03/15 13:16:50;;;;;;;1.47;1.00;;;;;;;;;;4955833;29;20448;-78
2021/03/15 13:19:16;;;;;;;2.33;2.17;;;;;;;;;;4957301;29;20420;-77
2021/03/15 13:27:49;;;;;;;3.23;3.00;;;;;;;;;;4955033;28;20500;-78
2021/03/15 13:30:17;;;;;;;1.60;1.50;;;;;;;;;;4955538;29;20426;-77
2021/03/15 13:32:44;;;;;;;3.50;1.97;;;;;;;;;;4955881;29;20416;-78
2021/03/15 13:35:10;;;;;;;4.60;1.90;;;;;;;;;;4955702;29;20481;-79
2021/03/15 13:37:39;;;;;;;6.03;1.77;;;;;;;;;;4955589;29;20423;-77
2021/03/15 13:40:06;;;;;;;2.93;1.70;;;;;;;;;;4955459;29;20432;-79
2021/03/15 13:42:32;;;;;;;2.40;2.10;;;;;;;;;;4955198;29;20417;-79
2021/03/15 13:44:57;;;;;;;3.43;1.87;;;;;;;;;;4955306;29;20890;-76
2021/03/15 13:47:23;;;;;;;1.80;1.70;;;;;;;;;;4954949;29;20412;-73
2021/03/15 13:49:49;;;;;;;2.90;1.87;;;;;;;;;;4955167;29;20638;-78
2021/03/15 13:52:15;;;;;;;2.87;2.50;;;;;;;;;;4955073;29;20456;-78
2021/03/15 13:54:41;;;;;;;2.43;1.97;;;;;;;;;;4954832;29;20535;-79
2021/03/15 13:57:07;;;;;;;2.40;2.20;;;;;;;;;;4955152;29;20766;-76
2021/03/15 13:59:33;;;;;;;3.33;2.33;;;;;;;;;;4954996;29;20514;-74
2021/03/15 14:01:59;;;;;;;5.60;2.00;;;;;;;;;;4954869;29;20411;-75
2021/03/15 14:04:25;;;;;;;4.60;2.33;;;;;;;;;;4955052;29;20427;-76
2021/03/15 14:06:51;;;;;;;4.23;2.43;;;;;;;;;;4954829;29;20422;-73
2021/03/15 14:12:21;;;;;;;2.50;2.30;;;;;;;;;;4955446;29;20472;-75
2021/03/15 14:14:47;;;;;;;3.27;2.40;;;;;;;;;;4954913;29;20493;-73
2021/03/15 14:17:13;;;;;;;2.30;2.10;;;;;;;;;;4954445;29;20554;-74
2021/03/15 14:19:39;;;;;;;1.60;1.50;;;;;;;;;;4954150;29;20915;-74
2021/03/15 14:22:05;;;;;;;2.30;1.97;;;;;;;;;;4953887;29;20765;-75
2021/03/15 14:24:32;;;;;;;2.90;2.43;;;;;;;;;;4953852;29;20427;-73
2021/03/15 14:26:58;;;;;;;2.73;1.93;;;;;;;;;;4953833;29;20817;-76
2021/03/15 14:29:24;;;;;;;10.90;2.30;;;;;;;;;;4952697;29;20428;-77
2021/03/15 14:31:50;;;;;;;4.43;2.40;;;;;;;;;;4953258;29;20428;-75
2021/03/15 14:34:16;;;;;;;2.00;1.90;;;;;;;;;;4953130;29;20471;-76
2021/03/15 14:36:42;;;;;;;2.73;2.00;;;;;;;;;;4953688;29;20430;-75
2021/03/15 14:42:11;;;;;;;2.30;2.10;;;;;;;;;;4953347;29;20478;-77
2021/03/15 14:44:37;;;;;;;2.70;1.73;;;;;;;;;;4953135;29;20423;-77
2021/03/15 14:47:03;;;;;;;2.33;2.00;;;;;;;;;;4953275;29;20837;-75
2021/03/15 14:49:29;;;;;;;2.13;1.90;;;;;;;;;;4953686;29;20408;-76
2021/03/15 14:51:55;;;;;;;8.70;2.80;;;;;;;;;;4953681;29;20411;-76
2021/03/15 14:57:25;;;;;;;2.67;2.47;;;;;;;;;;4953219;29;20470;-74
2021/03/15 14:59:51;;;;;;;2.53;1.70;;;;;;;;;;4953541;29;20422;-77
2021/03/15 15:02:16;;;;;;;2.60;1.80;;;;;;;;;;4953307;29;20509;-75
2021/03/15 15:04:43;;;;;;;3.03;1.93;;;;;;;;;;4953372;29;20427;-75
2021/03/15 15:07:08;;;;;;;2.63;1.93;;;;;;;;;;4936105;29;20934;-75
2021/03/15 15:12:38;;;;;;;2.40;2.20;;;;;;;;;;4953581;29;20544;-78
2021/03/15 15:15:04;;;;;;;4.37;1.90;;;;;;;;;;4953724;29;20581;-77
2021/03/15 15:17:30;;;;;;;2.73;1.67;;;;;;;;;;4953149;29;20842;-77
2021/03/15 15:19:56;;;;;;;3.50;1.60;;;;;;;;;;4953337;29;20525;-75
2021/03/15 15:22:22;;;;;;;1.80;1.30;;;;;;;;;;4953237;29;20829;-80
2021/03/15 15:28:00;;;;;;;1.67;1.57;;;;;;;;;;4952650;29;20429;-75
2021/03/15 15:30:26;;;;;;;1.93;1.83;;;;;;;;;;4952889;29;20494;-77
2021/03/15 15:32:52;;;;;;;2.63;2.43;;;;;;;;;;4935695;29;20504;-76
2021/03/15 15:35:18;;;;;;;3.00;1.90;;;;;;;;;;4951093;29;20478;-75
2021/03/15 15:37:46;;;;;;;2.00;1.80;;;;;;;;;;4950318;29;20428;-78
2021/03/15 15:40:12;;;;;;;2.60;1.30;;;;;;;;;;4950977;29;20437;-77
2021/03/15 15:42:38;;;;;;;2.33;1.60;;;;;;;;;;4949110;29;21089;-75
2021/03/15 15:45:04;;;;;;;2.83;1.60;;;;;;;;;;4950239;29;20430;-76
2021/03/15 15:47:30;;;;;;;3.30;1.60;;;;;;;;;;4950257;29;20453;-76
2021/03/15 15:49:56;;;;;;;2.20;1.30;;;;;;;;;;4951419;28;20889;-75
2021/03/15 15:52:23;;;;;;;1.67;1.57;;;;;;;;;;4954082;29;20425;-75
2021/03/15 15:57:53;;;;;;;3.00;1.30;;;;;;;;;;4953594;29;20480;-75
2021/03/15 16:00:19;;;;;;;1.53;1.30;;;;;;;;;;4953988;29;20441;-76
2021/03/15 16:02:45;;;;;;;2.27;1.23;;;;;;;;;;4953936;29;20506;-74
2021/03/15 16:05:12;;;;;;;2.33;1.33;;;;;;;;;;4954336;29;20460;-78
2021/03/15 16:07:38;;;;;;;2.97;1.43;;;;;;;;;;4954046;29;20774;-73
2021/03/15 16:13:09;;;;;;;1.80;1.43;;;;;;;;;;4953581;29;20430;-73